Time;durP1;ratioP1;P1;durP2;ratioP2;P2;SDS_P1;SDS_P2;PMS_P1;PMS_P2;Temp;Humidity;BMP_temperature;BMP_pressure;BME280_temperature;BME280_humidity;BME280_pressure;Samples;Min_cycle;Max_cycle;Signal;HPM_P1;HPM_P2
2021/12/30 00:02:16;;;;;;;5.63;3.60;;;11.00;99.90;;;;;;4972094;28;20763;-87
2021/12/30 00:04:42;;;;;;;6.97;1.97;;;11.00;99.90;;;;;;4987212;28;20184;-87
2021/12/30 00:07:09;;;;;;;8.03;1.67;;;11.00;99.90;;;;;;4971310;28;20184;-87
2021/12/30 00:09:36;;;;;;;7.00;2.23;;;11.00;99.90;;;;;;4970730;28;21238;-87
2021/12/30 00:12:04;;;;;;;2.30;1.13;;;11.00;99.90;;;;;;4988133;28;20270;-87
2021/12/30 00:14:29;;;;;;;6.67;2.17;;;11.00;99.90;;;;;;4971059;28;20236;-87
2021/12/30 00:16:55;;;;;;;2.93;1.60;;;11.00;99.90;;;;;;4971196;28;20692;-89
2021/12/30 00:19:21;;;;;;;8.30;2.40;;;11.00;99.90;;;;;;4987273;28;20206;-88
2021/12/30 00:21:47;;;;;;;2.30;1.47;;;11.00;99.90;;;;;;4971068;28;20226;-88
2021/12/30 00:24:12;;;;;;;14.33;3.07;;;11.00;99.90;;;;;;4970608;28;20235;-87
2021/12/30 00:26:38;;;;;;;6.53;2.90;;;11.00;99.90;;;;;;4971563;28;20583;-87
2021/12/30 00:29:04;;;;;;;2.30;1.63;;;11.00;99.90;;;;;;4955207;28;20224;-87
2021/12/30 00:31:30;;;;;;;8.43;2.60;;;11.00;99.90;;;;;;4971181;28;20246;-88
2021/12/30 00:33:57;;;;;;;7.00;1.90;;;11.00;99.90;;;;;;4954016;28;20701;-88
2021/12/30 00:36:22;;;;;;;9.57;2.37;;;11.00;99.90;;;;;;4988128;28;20199;-88
2021/12/30 00:38:48;;;;;;;11.87;2.30;;;11.00;99.90;;;;;;4976665;28;20216;-87
2021/12/30 00:41:14;;;;;;;3.07;2.80;;;11.00;99.90;;;;;;4960865;28;20636;-89
2021/12/30 00:43:40;;;;;;;8.33;1.20;;;11.00;99.90;;;;;;4993044;28;20207;-87
2021/12/30 00:46:08;;;;;;;8.47;2.50;;;10.90;99.90;;;;;;4993574;28;20667;-90
2021/12/30 00:48:34;;;;;;;6.83;1.47;;;11.00;99.90;;;;;;4993779;28;20215;-88
2021/12/30 00:51:00;;;;;;;12.40;2.20;;;11.00;99.90;;;;;;4976652;28;20227;-87
2021/12/30 00:53:26;;;;;;;7.73;1.93;;;10.90;99.90;;;;;;4976190;28;20238;-87
2021/12/30 00:55:52;;;;;;;6.20;1.63;;;11.00;99.90;;;;;;4975311;28;20189;-87
2021/12/30 00:58:18;;;;;;;10.70;1.63;;;11.00;99.90;;;;;;4961358;28;20334;-87
2021/12/30 01:00:45;;;;;;;7.63;1.80;;;10.90;99.90;;;;;;4959183;28;20295;-89
2021/12/30 01:03:12;;;;;;;3.80;2.40;;;10.90;99.90;;;;;;4977138;28;20200;-87
2021/12/30 01:05:38;;;;;;;1.07;1.03;;;10.80;99.90;;;;;;4976499;28;20261;-87
2021/12/30 01:08:06;;;;;;;9.10;2.80;;;10.80;99.90;;;;;;4960230;28;20281;-87
2021/12/30 01:10:34;;;;;;;4.23;1.73;;;10.80;99.90;;;;;;4993360;28;20192;-87
2021/12/30 01:13:05;;;;;;;3.47;2.30;;;10.90;99.90;;;;;;4976121;28;20224;-87
2021/12/30 01:15:44;;;;;;;3.70;2.83;;;10.80;99.90;;;;;;4994514;28;20228;-88
2021/12/30 01:18:26;;;;;;;9.03;3.63;;;10.80;99.90;;;;;;4992868;28;20220;-88
2021/12/30 01:20:52;;;;;;;14.53;2.20;;;10.80;99.90;;;;;;4993024;28;20230;-90
2021/12/30 01:23:18;;;;;;;6.53;3.23;;;10.80;99.90;;;;;;4992608;28;20231;-87
2021/12/30 01:25:44;;;;;;;2.40;1.80;;;10.70;99.90;;;;;;4992008;28;20685;-87
2021/12/30 01:28:10;;;;;;;5.33;1.03;;;10.80;99.90;;;;;;4976921;28;20192;-88
2021/12/30 01:30:36;;;;;;;14.13;2.20;;;10.80;99.90;;;;;;4975071;28;20215;-87
2021/12/30 01:33:01;;;;;;;5.10;1.73;;;10.80;99.90;;;;;;4975992;28;20277;-87
2021/12/30 01:35:27;;;;;;;14.00;2.87;;;10.80;99.90;;;;;;4960389;28;20219;-87
2021/12/30 01:37:57;;;;;;;4.43;1.77;;;10.80;99.90;;;;;;4992745;28;20188;-88
2021/12/30 01:40:23;;;;;;;5.03;2.53;;;10.80;99.90;;;;;;4993281;28;20191;-87
2021/12/30 01:42:50;;;;;;;3.63;1.67;;;10.80;99.90;;;;;;4975846;28;20211;-88
2021/12/30 01:45:16;;;;;;;3.90;2.20;;;10.80;99.90;;;;;;4976565;28;20200;-88
2021/12/30 01:47:49;;;;;;;8.07;2.47;;;10.90;99.90;;;;;;4991198;28;20266;-88
2021/12/30 01:50:16;;;;;;;3.57;1.53;;;10.90;99.90;;;;;;4988450;28;20216;-88
2021/12/30 01:52:42;;;;;;;9.03;2.50;;;10.90;99.90;;;;;;4972831;28;20239;-90
2021/12/30 01:55:10;;;;;;;3.00;2.10;;;10.80;99.90;;;;;;4989802;28;20231;-90
2021/12/30 01:57:35;;;;;;;5.97;1.30;;;10.90;99.90;;;;;;4988826;28;20212;-89
2021/12/30 02:00:03;;;;;;;10.40;2.13;;;10.90;99.90;;;;;;4956374;28;20216;-87
2021/12/30 02:02:29;;;;;;;14.93;2.47;;;10.90;99.90;;;;;;4988684;28;20226;-87
2021/12/30 02:04:55;;;;;;;8.67;3.57;;;10.90;99.90;;;;;;4956300;28;21302;-88
2021/12/30 02:07:20;;;;;;;8.10;1.37;;;10.90;99.90;;;;;;4973187;28;20272;-88
2021/12/30 02:09:46;;;;;;;6.23;1.23;;;11.00;99.90;;;;;;4973074;28;20218;-87
2021/12/30 02:12:12;;;;;;;2.73;0.67;;;11.00;99.90;;;;;;4972347;28;20208;-86
2021/12/30 02:14:38;;;;;;;2.67;1.83;;;11.10;99.90;;;;;;4988540;28;20215;-87
2021/12/30 02:17:05;;;;;;;6.83;1.70;;;11.10;99.90;;;;;;4956599;28;20216;-87
2021/12/30 02:19:32;;;;;;;18.30;3.37;;;11.10;99.90;;;;;;4973110;28;20542;-87
2021/12/30 02:21:58;;;;;;;8.33;2.93;;;11.10;99.90;;;;;;4972522;28;20227;-87
2021/12/30 02:24:24;;;;;;;6.93;3.07;;;11.10;99.90;;;;;;4956356;28;20231;-87
2021/12/30 02:26:51;;;;;;;9.93;1.37;;;11.20;99.90;;;;;;4972671;28;20224;-87
2021/12/30 02:29:17;;;;;;;4.80;2.37;;;11.20;99.90;;;;;;4972650;28;20766;-88
2021/12/30 02:31:43;;;;;;;9.07;5.03;;;11.10;99.90;;;;;;4972598;28;20711;-87
2021/12/30 02:34:09;;;;;;;6.13;2.63;;;11.10;99.90;;;;;;4989267;28;20216;-87
2021/12/30 02:36:37;;;;;;;10.60;2.07;;;11.10;99.90;;;;;;4971787;28;20507;-88
2021/12/30 02:39:06;;;;;;;15.60;2.27;;;11.10;99.90;;;;;;4957358;28;20215;-89
2021/12/30 02:41:34;;;;;;;4.93;2.60;;;11.20;99.90;;;;;;4988051;28;20215;-88
2021/12/30 02:44:01;;;;;;;10.80;1.73;;;11.20;99.90;;;;;;4988369;28;20672;-87
2021/12/30 02:46:30;;;;;;;10.30;1.33;;;11.20;99.90;;;;;;4956936;28;20594;-88
2021/12/30 02:49:00;;;;;;;14.93;2.40;;;11.20;99.90;;;;;;4983352;28;20214;-87
2021/12/30 02:51:27;;;;;;;6.17;2.70;;;11.20;99.90;;;;;;4972195;28;20231;-87
2021/12/30 02:53:53;;;;;;;14.37;4.93;;;11.20;99.90;;;;;;4989501;28;20219;-88
2021/12/30 02:56:20;;;;;;;3.87;2.07;;;11.20;99.90;;;;;;5005057;28;20220;-87
2021/12/30 02:58:46;;;;;;;8.87;1.90;;;11.20;99.90;;;;;;4988522;28;20204;-87
2021/12/30 03:01:14;;;;;;;7.57;2.30;;;11.20;99.90;;;;;;4973109;28;20191;-87
2021/12/30 03:03:40;;;;;;;1.93;1.43;;;11.30;99.90;;;;;;4987154;28;20228;-89
2021/12/30 03:06:10;;;;;;;18.43;4.33;;;11.30;99.90;;;;;;4955238;28;20216;-87
2021/12/30 03:08:36;;;;;;;10.77;1.07;;;11.30;99.90;;;;;;4986769;28;20278;-88
2021/12/30 03:11:03;;;;;;;3.33;2.67;;;11.30;99.90;;;;;;4971365;28;20219;-87
2021/12/30 03:13:31;;;;;;;4.70;1.73;;;11.30;99.90;;;;;;4972357;28;20204;-89
2021/12/30 03:16:11;;;;;;;7.63;2.83;;;11.30;99.90;;;;;;4971769;28;20204;-87
2021/12/30 03:18:38;;;;;;;7.97;2.07;;;11.30;99.90;;;;;;5004441;28;20247;-89
2021/12/30 03:21:06;;;;;;;10.83;2.13;;;11.30;99.90;;;;;;4987425;28;20233;-87
2021/12/30 03:23:33;;;;;;;2.47;1.33;;;11.40;99.90;;;;;;4971394;28;20236;-88
2021/12/30 03:25:59;;;;;;;9.73;3.37;;;11.40;99.90;;;;;;5004125;28;20248;-88
2021/12/30 03:28:25;;;;;;;3.60;2.43;;;11.40;99.90;;;;;;4972091;28;20279;-87
2021/12/30 03:30:51;;;;;;;5.67;1.23;;;11.40;99.90;;;;;;4987971;28;20666;-87
2021/12/30 03:33:20;;;;;;;3.70;1.10;;;11.40;99.90;;;;;;4955577;28;20716;-87
2021/12/30 03:35:46;;;;;;;11.87;2.33;;;11.50;99.90;;;;;;4987649;28;20219;-87
2021/12/30 03:38:12;;;;;;;13.00;3.30;;;11.50;99.90;;;;;;4970379;28;20218;-87
2021/12/30 03:40:38;;;;;;;13.97;2.33;;;11.50;99.90;;;;;;4987786;28;20188;-87
2021/12/30 03:43:04;;;;;;;4.73;1.73;;;11.60;99.90;;;;;;4955268;28;20195;-87
2021/12/30 03:45:30;;;;;;;2.20;1.77;;;11.60;99.90;;;;;;4953900;28;20219;-87
2021/12/30 03:47:56;;;;;;;3.10;1.03;;;11.60;99.90;;;;;;4954362;28;20208;-89
2021/12/30 03:50:25;;;;;;;6.47;1.10;;;11.70;99.90;;;;;;4970963;28;20226;-87
2021/12/30 03:53:02;;;;;;;8.80;1.97;;;11.70;99.90;;;;;;4987001;28;20671;-87
2021/12/30 03:55:30;;;;;;;6.37;1.47;;;11.70;99.90;;;;;;4987479;28;20275;-87
2021/12/30 03:57:56;;;;;;;9.27;2.53;;;11.70;99.90;;;;;;4986971;28;20203;-87
2021/12/30 04:00:24;;;;;;;5.37;2.47;;;11.70;99.90;;;;;;4971433;28;20232;-86
2021/12/30 04:02:50;;;;;;;6.10;0.87;;;11.70;99.90;;;;;;4971411;28;20307;-86
2021/12/30 04:05:16;;;;;;;5.20;1.60;;;11.80;99.90;;;;;;4970459;28;20785;-87
2021/12/30 04:07:42;;;;;;;2.60;2.37;;;11.80;99.90;;;;;;4986672;28;20184;-87
2021/12/30 04:10:11;;;;;;;9.07;2.30;;;11.90;99.90;;;;;;4970707;28;20731;-87
2021/12/30 04:12:37;;;;;;;12.03;1.17;;;11.90;99.90;;;;;;4986175;28;20220;-86
2021/12/30 04:15:05;;;;;;;14.70;2.73;;;11.90;99.90;;;;;;4986022;28;20211;-87
2021/12/30 04:17:31;;;;;;;1.70;1.47;;;11.90;99.90;;;;;;4970168;28;20224;-86
2021/12/30 04:19:57;;;;;;;8.93;2.27;;;12.00;99.90;;;;;;4969874;28;20577;-86
2021/12/30 04:22:23;;;;;;;10.40;1.83;;;12.00;99.90;;;;;;4969619;28;20275;-87
2021/12/30 04:24:49;;;;;;;3.00;1.40;;;12.00;99.90;;;;;;4970820;28;20216;-86
2021/12/30 04:27:16;;;;;;;9.03;2.17;;;12.10;99.90;;;;;;4970557;28;20277;-86
2021/12/30 04:29:42;;;;;;;11.33;2.70;;;12.10;99.90;;;;;;5002080;28;20263;-88
2021/12/30 04:32:08;;;;;;;2.20;2.00;;;12.10;99.90;;;;;;4987974;28;20212;-87
2021/12/30 04:34:33;;;;;;;4.23;2.23;;;12.00;99.90;;;;;;4986925;28;20212;-87
2021/12/30 04:36:59;;;;;;;21.27;3.27;;;12.00;99.90;;;;;;4953395;28;20216;-86
2021/12/30 04:39:30;;;;;;;11.50;1.33;;;12.00;99.90;;;;;;5002946;28;20223;-87
2021/12/30 04:41:58;;;;;;;4.40;1.73;;;12.10;99.90;;;;;;4986467;28;20310;-87
2021/12/30 04:44:25;;;;;;;1.77;1.67;;;12.10;99.90;;;;;;4969592;28;20216;-87
2021/12/30 04:46:51;;;;;;;4.33;1.97;;;12.00;99.90;;;;;;4970423;28;20609;-86
2021/12/30 04:49:16;;;;;;;9.50;2.67;;;12.10;99.90;;;;;;4953966;28;20202;-86
2021/12/30 04:51:42;;;;;;;10.80;2.00;;;12.00;99.90;;;;;;4969494;28;20219;-91
2021/12/30 04:54:08;;;;;;;10.67;2.30;;;12.00;99.90;;;;;;4969657;28;20219;-89
2021/12/30 04:56:34;;;;;;;9.00;2.27;;;12.10;99.90;;;;;;4970226;28;20214;-87
2021/12/30 04:59:00;;;;;;;3.03;1.37;;;12.20;99.90;;;;;;4953592;28;20248;-87
2021/12/30 05:01:26;;;;;;;3.83;1.73;;;12.20;99.90;;;;;;4970413;28;20249;-87
2021/12/30 05:03:51;;;;;;;7.63;2.90;;;12.30;99.90;;;;;;4968978;28;20207;-89
2021/12/30 05:06:17;;;;;;;12.43;3.70;;;12.30;99.90;;;;;;4987812;28;20219;-86
2021/12/30 05:08:43;;;;;;;10.53;2.23;;;12.40;99.90;;;;;;4986034;28;20228;-89
2021/12/30 05:11:09;;;;;;;12.50;2.20;;;12.40;99.90;;;;;;4953271;28;20341;-87
2021/12/30 05:13:35;;;;;;;3.17;1.70;;;12.40;99.90;;;;;;4986723;28;20304;-89
2021/12/30 05:16:02;;;;;;;1.87;1.70;;;12.40;99.90;;;;;;4987726;28;20677;-88
2021/12/30 05:18:32;;;;;;;3.37;3.07;;;12.40;99.90;;;;;;4969450;28;20294;-86
2021/12/30 05:21:03;;;;;;;3.27;2.17;;;12.50;99.90;;;;;;4969827;28;20219;-86
2021/12/30 05:23:30;;;;;;;11.57;2.87;;;12.50;99.90;;;;;;4985754;28;20690;-87
2021/12/30 05:25:56;;;;;;;6.70;2.97;;;12.50;99.90;;;;;;4989467;28;20557;-86
2021/12/30 05:28:22;;;;;;;8.00;2.80;;;12.50;99.90;;;;;;4973305;28;20188;-87
2021/12/30 05:30:48;;;;;;;9.20;2.03;;;12.50;99.90;;;;;;4956375;28;20212;-90
2021/12/30 05:33:14;;;;;;;22.63;2.40;;;12.50;99.90;;;;;;4956950;28;20235;-86
2021/12/30 05:35:40;;;;;;;13.23;2.57;;;12.50;99.90;;;;;;4989079;28;20611;-86
2021/12/30 05:38:06;;;;;;;7.43;3.37;;;12.50;99.90;;;;;;4988938;28;21138;-87
2021/12/30 05:40:33;;;;;;;8.67;1.93;;;12.50;99.90;;;;;;4957209;28;20190;-87
2021/12/30 05:42:59;;;;;;;4.47;2.20;;;12.60;99.90;;;;;;4988854;28;20254;-88
2021/12/30 05:45:26;;;;;;;4.93;2.43;;;12.70;99.90;;;;;;4988145;28;20220;-87
2021/12/30 05:47:53;;;;;;;5.73;2.30;;;12.70;99.90;;;;;;4972541;28;20246;-86
2021/12/30 05:50:25;;;;;;;4.03;2.00;;;12.80;99.90;;;;;;4956444;28;20224;-86
2021/12/30 05:52:51;;;;;;;2.90;2.00;;;12.80;99.90;;;;;;4988123;28;20231;-87
2021/12/30 05:55:17;;;;;;;7.80;3.47;;;12.90;99.90;;;;;;4972390;28;20196;-87
2021/12/30 05:57:43;;;;;;;7.23;2.10;;;12.90;99.90;;;;;;4956098;28;20216;-86
2021/12/30 06:00:12;;;;;;;10.73;4.17;;;12.90;99.90;;;;;;4972675;28;20223;-88
2021/12/30 06:02:38;;;;;;;3.33;2.53;;;12.90;99.90;;;;;;4988899;28;20216;-86
2021/12/30 06:05:04;;;;;;;2.83;1.80;;;13.00;99.90;;;;;;4956067;28;20208;-86
2021/12/30 06:07:30;;;;;;;16.13;2.40;;;13.00;99.90;;;;;;4972237;28;20608;-86
2021/12/30 06:09:56;;;;;;;9.97;3.83;;;13.10;99.90;;;;;;4972035;28;20299;-89
2021/12/30 06:12:22;;;;;;;5.07;3.10;;;13.10;99.90;;;;;;4987945;28;20212;-86
2021/12/30 06:14:48;;;;;;;16.10;3.47;;;13.10;99.90;;;;;;4971447;28;20251;-89
2021/12/30 06:17:15;;;;;;;5.30;2.50;;;13.20;99.90;;;;;;4972112;28;20223;-86
2021/12/30 06:19:43;;;;;;;2.80;1.97;;;13.20;99.90;;;;;;4972466;28;20200;-85
2021/12/30 06:22:13;;;;;;;6.17;2.93;;;13.20;99.90;;;;;;4972571;28;20254;-86
2021/12/30 06:24:39;;;;;;;8.10;2.70;;;13.20;99.90;;;;;;4987134;28;20301;-85
2021/12/30 06:27:06;;;;;;;5.87;2.73;;;13.20;99.90;;;;;;4972071;28;20235;-86
2021/12/30 06:29:32;;;;;;;9.63;2.30;;;13.30;99.90;;;;;;4988244;28;20204;-86
2021/12/30 06:31:58;;;;;;;2.23;1.67;;;13.30;99.90;;;;;;4987463;28;20227;-86
2021/12/30 06:34:24;;;;;;;6.30;2.63;;;13.30;99.90;;;;;;4956415;28;20245;-86
2021/12/30 06:36:49;;;;;;;3.80;2.33;;;13.30;99.90;;;;;;4955226;28;20754;-85
2021/12/30 06:39:15;;;;;;;3.70;2.27;;;13.40;99.90;;;;;;4971966;28;20228;-86
2021/12/30 06:41:41;;;;;;;5.23;2.33;;;13.30;99.90;;;;;;4971728;28;20224;-87
2021/12/30 06:44:07;;;;;;;4.03;2.10;;;13.30;99.90;;;;;;4987853;28;20302;-86
2021/12/30 06:46:33;;;;;;;2.23;1.00;;;13.40;99.90;;;;;;4972112;28;20192;-86
2021/12/30 06:48:59;;;;;;;3.10;2.23;;;13.40;99.90;;;;;;4970929;28;20223;-86
2021/12/30 06:51:27;;;;;;;4.70;2.43;;;13.40;99.90;;;;;;4987700;28;20223;-84
2021/12/30 06:53:55;;;;;;;1.50;1.33;;;13.40;99.90;;;;;;4987199;28;21202;-85
2021/12/30 06:56:23;;;;;;;5.50;2.37;;;13.40;99.90;;;;;;4987399;28;20219;-86
2021/12/30 06:58:49;;;;;;;4.67;2.70;;;13.40;99.90;;;;;;4987795;28;20192;-89
2021/12/30 07:01:15;;;;;;;3.57;1.80;;;13.50;99.90;;;;;;4956440;28;20556;-86
2021/12/30 07:03:40;;;;;;;1.63;1.50;;;13.40;99.90;;;;;;4970799;28;20234;-86
2021/12/30 07:06:07;;;;;;;3.97;2.07;;;13.40;99.90;;;;;;4970199;28;20216;-85
2021/12/30 07:08:33;;;;;;;2.37;2.00;;;13.40;99.90;;;;;;4970526;28;20228;-87
2021/12/30 07:10:58;;;;;;;4.03;1.83;;;13.50;99.90;;;;;;4987205;28;20218;-86
2021/12/30 07:13:24;;;;;;;3.87;1.67;;;13.50;99.90;;;;;;4955279;28;20314;-85
2021/12/30 07:15:50;;;;;;;1.10;1.00;;;13.40;99.90;;;;;;4970482;28;20219;-86
2021/12/30 07:18:16;;;;;;;3.13;1.90;;;13.40;99.90;;;;;;4954676;28;20367;-87
2021/12/30 07:20:41;;;;;;;1.23;1.00;;;13.50;99.90;;;;;;4953887;28;20265;-87
2021/12/30 07:23:07;;;;;;;1.80;1.50;;;13.40;99.90;;;;;;4969856;28;20692;-86
2021/12/30 07:25:33;;;;;;;1.23;1.13;;;13.40;99.90;;;;;;4955290;28;21068;-87
2021/12/30 07:28:01;;;;;;;4.27;1.80;;;13.50;99.90;;;;;;4970123;28;20223;-88
2021/12/30 07:30:27;;;;;;;1.73;1.10;;;13.50;99.90;;;;;;4986792;28;20301;-86
2021/12/30 07:32:53;;;;;;;1.83;1.10;;;13.50;99.90;;;;;;4953893;28;20674;-86
2021/12/30 07:35:20;;;;;;;1.20;0.97;;;13.50;99.90;;;;;;4970651;28;20724;-86
2021/12/30 07:37:47;;;;;;;1.47;1.37;;;13.50;99.90;;;;;;4985963;28;20650;-85
2021/12/30 07:40:13;;;;;;;1.90;1.77;;;13.50;99.90;;;;;;4986810;28;20192;-87
2021/12/30 07:42:39;;;;;;;1.30;1.20;;;13.40;99.90;;;;;;4986046;28;20218;-86
2021/12/30 07:45:06;;;;;;;2.97;2.17;;;13.50;99.90;;;;;;5002188;28;20363;-85
2021/12/30 07:47:32;;;;;;;2.03;1.07;;;13.50;99.90;;;;;;4968569;28;20268;-88
2021/12/30 07:49:57;;;;;;;1.27;1.13;;;13.40;99.90;;;;;;4986298;28;20221;-86
2021/12/30 07:52:23;;;;;;;2.70;1.40;;;13.40;99.90;;;;;;4970984;28;20200;-87
2021/12/30 07:54:49;;;;;;;2.20;1.17;;;13.40;99.90;;;;;;4970524;28;20231;-88
2021/12/30 07:57:21;;;;;;;1.50;1.23;;;13.40;99.90;;;;;;5002408;28;20782;-89
2021/12/30 07:59:51;;;;;;;3.17;1.47;;;13.40;99.90;;;;;;4986894;28;20286;-87
2021/12/30 08:02:17;;;;;;;3.83;2.00;;;13.40;99.90;;;;;;4964481;28;20617;-87
2021/12/30 08:04:43;;;;;;;5.03;2.13;;;13.40;99.90;;;;;;4970529;28;20272;-88
2021/12/30 08:07:09;;;;;;;2.03;1.60;;;13.40;99.90;;;;;;4955199;28;20271;-89
2021/12/30 08:09:35;;;;;;;1.93;1.33;;;13.40;99.90;;;;;;4971645;28;20218;-88
2021/12/30 08:12:01;;;;;;;4.20;1.67;;;13.40;99.90;;;;;;4969919;28;20209;-87
2021/12/30 08:14:27;;;;;;;2.80;1.73;;;13.40;99.90;;;;;;4988029;28;20307;-84
2021/12/30 08:16:54;;;;;;;5.10;2.20;;;13.40;99.90;;;;;;4970162;28;20188;-86
2021/12/30 08:19:19;;;;;;;1.53;0.70;;;13.40;99.90;;;;;;4989201;28;20184;-86
2021/12/30 08:21:45;;;;;;;7.53;1.40;;;13.40;99.90;;;;;;4969869;28;20976;-86
2021/12/30 08:24:11;;;;;;;2.67;1.60;;;13.40;99.90;;;;;;4986837;28;20216;-86
2021/12/30 08:26:38;;;;;;;3.03;1.53;;;13.40;99.90;;;;;;4955044;28;20315;-88
2021/12/30 08:29:05;;;;;;;4.13;1.97;;;13.40;99.90;;;;;;4971373;28;20220;-85
2021/12/30 08:31:32;;;;;;;1.63;1.13;;;13.40;99.90;;;;;;4971561;28;20208;-86
2021/12/30 08:33:58;;;;;;;7.27;1.73;;;13.40;99.90;;;;;;4987097;28;20242;-87
2021/12/30 08:36:24;;;;;;;1.60;1.13;;;13.40;99.90;;;;;;4970008;28;21195;-85
2021/12/30 08:38:49;;;;;;;6.97;0.83;;;13.40;99.90;;;;;;4954603;28;20299;-85
2021/12/30 08:41:15;;;;;;;1.60;1.10;;;13.50;99.90;;;;;;4953646;28;20220;-85
2021/12/30 08:43:41;;;;;;;3.73;1.93;;;13.40;99.90;;;;;;4954493;28;20227;-84
2021/12/30 08:46:07;;;;;;;0.77;0.50;;;13.50;99.90;;;;;;4955934;28;20181;-85
2021/12/30 08:48:32;;;;;;;7.73;1.60;;;13.50;99.90;;;;;;4972008;28;20303;-85
2021/12/30 08:50:58;;;;;;;2.70;1.57;;;13.50;99.90;;;;;;4986757;28;20216;-87
2021/12/30 08:53:25;;;;;;;2.27;0.77;;;13.50;99.90;;;;;;4955438;28;20232;-84
2021/12/30 08:55:54;;;;;;;9.63;2.00;;;13.50;99.90;;;;;;4954354;28;20200;-85
2021/12/30 08:58:20;;;;;;;0.60;0.60;;;13.50;99.90;;;;;;4974643;28;20187;-85
2021/12/30 09:00:47;;;;;;;5.17;1.47;;;13.60;99.90;;;;;;4957961;28;20282;-89
2021/12/30 09:03:15;;;;;;;10.17;1.47;;;13.60;99.90;;;;;;4990334;28;20238;-85
2021/12/30 09:05:43;;;;;;;3.57;1.30;;;13.60;99.90;;;;;;4990866;28;20208;-86
2021/12/30 09:08:10;;;;;;;6.63;1.00;;;13.60;99.90;;;;;;4989867;28;20239;-85
2021/12/30 09:10:45;;;;;;;4.70;2.23;;;13.60;99.90;;;;;;4990184;28;20271;-86
2021/12/30 09:13:11;;;;;;;3.60;1.40;;;13.60;99.90;;;;;;4975423;28;20266;-88
2021/12/30 09:15:38;;;;;;;2.37;1.20;;;13.60;99.90;;;;;;4991548;28;20294;-87
2021/12/30 09:18:05;;;;;;;8.10;1.40;;;13.60;99.90;;;;;;4990375;28;20200;-85
2021/12/30 09:20:32;;;;;;;6.77;1.80;;;13.60;99.90;;;;;;4987077;28;21051;-86
2021/12/30 09:23:02;;;;;;;6.60;2.30;;;13.60;99.90;;;;;;4956132;28;20228;-89
2021/12/30 09:25:28;;;;;;;3.50;1.20;;;13.60;99.90;;;;;;4991015;28;20286;-87
2021/12/30 09:27:55;;;;;;;6.10;0.80;;;13.60;99.90;;;;;;4990494;28;21106;-88
2021/12/30 09:30:22;;;;;;;2.30;1.23;;;13.50;99.90;;;;;;5008341;28;20212;-87
2021/12/30 09:32:49;;;;;;;3.67;1.20;;;13.50;99.90;;;;;;4974008;28;20211;-88
2021/12/30 09:35:15;;;;;;;0.43;0.43;;;13.50;99.90;;;;;;4974509;28;20654;-88
2021/12/30 09:37:42;;;;;;;6.60;2.53;;;13.50;99.90;;;;;;4989863;28;20200;-90
2021/12/30 09:40:12;;;;;;;3.70;1.30;;;13.50;99.90;;;;;;4975629;28;20200;-89
2021/12/30 09:42:39;;;;;;;1.77;1.30;;;13.50;99.90;;;;;;4959748;28;20238;-89
2021/12/30 09:45:06;;;;;;;6.57;1.47;;;13.50;99.90;;;;;;4958491;28;20225;-90
2021/12/30 09:47:33;;;;;;;2.43;1.07;;;13.50;99.90;;;;;;4971483;28;20664;-89
2021/12/30 09:49:59;;;;;;;4.30;2.07;;;13.50;99.90;;;;;;4990712;28;20223;-89
2021/12/30 09:52:26;;;;;;;7.10;2.23;;;13.50;99.90;;;;;;4958410;28;20250;-90
2021/12/30 09:54:52;;;;;;;9.90;1.33;;;13.50;99.90;;;;;;4958601;28;20719;-86
2021/12/30 09:57:18;;;;;;;1.20;0.63;;;13.50;99.90;;;;;;4973426;28;20212;-90
2021/12/30 09:59:53;;;;;;;2.97;1.13;;;13.50;99.90;;;;;;4974781;28;20409;-87
2021/12/30 10:02:19;;;;;;;11.60;1.27;;;13.50;99.90;;;;;;4973145;28;20259;-88
2021/12/30 10:04:44;;;;;;;3.50;1.57;;;13.50;99.90;;;;;;4957513;28;20287;-89
2021/12/30 10:07:21;;;;;;;7.00;1.27;;;13.50;99.90;;;;;;4974192;28;20207;-86
2021/12/30 10:09:52;;;;;;;2.20;1.50;;;13.50;99.90;;;;;;4988832;28;20218;-89
2021/12/30 10:12:35;;;;;;;0.90;0.63;;;13.50;99.90;;;;;;4973749;28;20251;-89
2021/12/30 10:15:02;;;;;;;11.43;1.33;;;13.50;99.90;;;;;;4972594;28;20688;-90
2021/12/30 10:17:30;;;;;;;5.17;0.87;;;13.50;99.90;;;;;;4989686;28;20227;-88
2021/12/30 10:20:20;;;;;;;1.17;1.00;;;13.50;99.90;;;;;;4989177;28;20576;-88
2021/12/30 10:22:49;;;;;;;16.33;4.73;;;13.50;99.90;;;;;;4989072;28;20688;-89
2021/12/30 10:25:25;;;;;;;5.80;1.47;;;13.60;99.90;;;;;;4974457;28;21005;-89
2021/12/30 10:27:52;;;;;;;6.10;1.47;;;13.60;99.90;;;;;;5004575;28;20219;-88
2021/12/30 10:30:33;;;;;;;4.43;0.93;;;13.60;99.90;;;;;;4989322;28;20228;-89
2021/12/30 10:33:13;;;;;;;1.67;1.07;;;13.60;99.90;;;;;;4988718;28;20232;-88
2021/12/30 10:35:39;;;;;;;3.87;1.13;;;13.70;99.90;;;;;;5005382;28;20251;-88
2021/12/30 10:38:09;;;;;;;5.87;0.87;;;13.70;99.90;;;;;;4973550;28;20226;-88
2021/12/30 10:40:41;;;;;;;4.93;0.87;;;13.70;99.90;;;;;;4988690;28;20537;-91
2021/12/30 10:43:31;;;;;;;5.53;1.90;;;13.70;99.90;;;;;;5007408;28;20215;-88
2021/12/30 10:46:30;;;;;;;1.77;1.10;;;13.70;99.90;;;;;;4992759;28;20273;-88
2021/12/30 10:49:25;;;;;;;5.17;2.13;;;13.70;99.90;;;;;;4986425;28;20982;-87
2021/12/30 10:51:53;;;;;;;4.50;1.37;;;13.70;99.90;;;;;;4972627;28;20227;-86
2021/12/30 10:54:26;;;;;;;5.17;2.10;;;13.70;99.90;;;;;;5004721;28;20223;-87
2021/12/30 10:56:56;;;;;;;8.57;2.53;;;13.70;99.90;;;;;;5001723;28;20574;-87
2021/12/30 10:59:26;;;;;;;11.57;1.03;;;13.70;99.90;;;;;;4988700;28;21292;-88
2021/12/30 11:02:09;;;;;;;1.53;0.70;;;13.70;99.90;;;;;;5004922;28;20752;-89
2021/12/30 11:04:50;;;;;;;8.67;1.87;;;13.70;99.90;;;;;;4990602;28;20560;-86
2021/12/30 11:07:48;;;;;;;6.03;1.40;;;13.70;99.90;;;;;;4988762;28;20255;-87
2021/12/30 11:10:31;;;;;;;14.37;2.70;;;13.70;99.90;;;;;;4966986;28;20347;-88
2021/12/30 11:13:12;;;;;;;13.23;2.20;;;13.70;99.90;;;;;;4968847;28;20685;-87
2021/12/30 11:15:38;;;;;;;3.30;2.13;;;13.70;99.90;;;;;;4969206;28;20623;-88
2021/12/30 11:18:12;;;;;;;7.20;1.43;;;13.70;99.90;;;;;;4969200;28;20592;-87
2021/12/30 11:20:47;;;;;;;4.60;1.80;;;13.70;99.90;;;;;;4969350;28;20220;-87
2021/12/30 11:23:15;;;;;;;9.60;3.23;;;13.70;99.90;;;;;;4968529;28;20579;-87
2021/12/30 11:25:41;;;;;;;19.03;2.97;;;13.70;99.90;;;;;;4984798;28;20327;-88
2021/12/30 11:28:07;;;;;;;8.40;1.40;;;13.70;99.90;;;;;;4969395;28;20224;-87
2021/12/30 11:30:33;;;;;;;13.33;2.10;;;13.70;99.90;;;;;;4967011;28;20251;-87
2021/12/30 11:32:59;;;;;;;4.07;3.00;;;13.70;99.90;;;;;;4951348;28;20264;-90
2021/12/30 11:35:26;;;;;;;3.30;1.50;;;13.70;99.90;;;;;;4968786;28;20697;-87
2021/12/30 11:37:54;;;;;;;10.27;2.43;;;13.70;99.90;;;;;;4967485;28;20563;-88
2021/12/30 11:40:23;;;;;;;7.90;2.50;;;13.70;99.90;;;;;;4967071;28;20204;-87
2021/12/30 11:42:56;;;;;;;2.90;1.77;;;13.70;99.90;;;;;;4983106;28;20239;-88
2021/12/30 11:45:25;;;;;;;10.13;2.67;;;13.70;99.90;;;;;;4967466;28;20671;-88
2021/12/30 11:47:51;;;;;;;15.40;3.60;;;13.80;99.90;;;;;;4968843;28;20228;-87
2021/12/30 11:50:31;;;;;;;12.07;1.90;;;13.80;99.90;;;;;;4957762;28;20303;-89
2021/12/30 11:53:01;;;;;;;11.80;2.73;;;13.80;99.90;;;;;;4987257;28;20238;-90
2021/12/30 11:55:47;;;;;;;1.97;0.70;;;13.80;99.90;;;;;;5004149;28;20192;-89
2021/12/30 12:01:16;;;;;;;10.50;2.73;;;14.00;99.90;;;;;;4987738;28;20215;-86
2021/12/30 12:03:52;;;;;;;6.10;2.27;;;14.10;99.90;;;;;;4984673;28;20232;-91
2021/12/30 12:06:24;;;;;;;10.60;3.00;;;14.20;99.90;;;;;;4984647;28;20219;-86
2021/12/30 12:08:52;;;;;;;13.37;2.03;;;14.20;99.90;;;;;;4983940;28;20217;-88
2021/12/30 12:11:28;;;;;;;5.33;1.93;;;14.30;99.90;;;;;;4969172;28;20235;-88
2021/12/30 12:14:09;;;;;;;7.50;4.10;;;14.30;99.90;;;;;;4968192;28;20192;-87
2021/12/30 12:16:48;;;;;;;12.67;2.93;;;14.30;99.90;;;;;;4968409;28;20626;-87
2021/12/30 12:19:18;;;;;;;8.60;2.87;;;14.30;99.90;;;;;;5003634;28;20216;-87
2021/12/30 12:21:46;;;;;;;5.60;2.20;;;14.40;99.90;;;;;;5002820;28;20216;-87
2021/12/30 12:24:21;;;;;;;9.83;2.40;;;14.50;99.90;;;;;;5002626;28;20231;-87
2021/12/30 12:26:48;;;;;;;13.23;2.53;;;14.50;99.90;;;;;;4987277;28;20719;-88
2021/12/30 12:29:23;;;;;;;14.53;4.17;;;14.40;99.90;;;;;;4987240;28;20295;-86
2021/12/30 12:31:57;;;;;;;11.50;2.70;;;14.50;99.90;;;;;;4986404;28;20219;-88
2021/12/30 12:34:38;;;;;;;6.93;2.17;;;14.50;99.90;;;;;;4971863;28;20219;-87
2021/12/30 12:37:25;;;;;;;5.47;2.13;;;14.40;99.90;;;;;;5003477;28;20258;-90
2021/12/30 12:39:56;;;;;;;2.27;1.30;;;14.40;99.90;;;;;;4973877;28;20226;-86
2021/12/30 12:42:48;;;;;;;12.33;2.97;;;14.30;99.90;;;;;;4986547;28;20212;-91
2021/12/30 12:45:22;;;;;;;8.93;2.90;;;14.30;99.90;;;;;;4985428;28;20224;-89
2021/12/30 12:48:23;;;;;;;4.87;2.00;;;14.30;99.90;;;;;;4983342;28;20220;-88
2021/12/30 12:51:00;;;;;;;2.63;1.40;;;14.20;99.90;;;;;;4982437;28;20764;-88
2021/12/30 12:53:26;;;;;;;7.87;2.87;;;14.20;99.90;;;;;;4983361;28;20713;-91
2021/12/30 12:55:56;;;;;;;6.43;3.20;;;14.10;99.90;;;;;;4967572;28;20235;-89